Aviation Digital Data Service (ADDS)

Output produced by METARs form (0230 UTC 20 September 2020)
found at http://www.aviationweather.gov/metar/data/
 
METAR text: ZBAA 200200Z 35003MPS 310V020 CAVOK 24/06 Q1020 NOSIG
Conditions at: ZBAA (BEIJING/PEKING , CN) observed 0200 UTC 20 September 2020
Temperature: 24.0°C (75°F)
Dewpoint: 6.0°C (43°F) [RH = 31%]
Pressure (altimeter): 30.12 inches Hg (1020.0 mb)
Winds: from the N (350 degrees) at 7 MPH (6 knots; 3.1 m/s)
Visibility: 6 or more miles (10+ km)
Ceiling: ceiling and visibility are OK
Clouds: unknown
Weather: no significant weather observed at this time

Forecast for: ZBAA (BEIJING/PEKING , CN)
Text: TAF ZBAA 192106Z 2000/2024 18004MPS CAVOK TX29/2007Z TN12/2021Z
Forecast period: 0000 UTC 20 September 2020 to 0000 UTC 21 September 2020
Forecast type: FROM: standard forecast or significant change
Winds: from the S (180 degrees) at 9 MPH (8 knots; 4.1 m/s)
Visibility: 6 or more miles (10+ km)
Ceiling: unknown
Clouds: missing
Weather: no significant weather forecast for this period